sensor_id;sensor_type;location;lat;lon;timestamp;temperature;humidity
33271;DHT22;53180;51.344;6.152;2023-05-23T00:00:45;16.90;80.70
33271;DHT22;53180;51.344;6.152;2023-05-23T00:03:19;16.80;80.00
33271;DHT22;53180;51.344;6.152;2023-05-23T00:05:48;16.80;79.40
33271;DHT22;53180;51.344;6.152;2023-05-23T00:08:18;16.80;78.70
33271;DHT22;53180;51.344;6.152;2023-05-23T00:10:46;16.70;77.90
33271;DHT22;53180;51.344;6.152;2023-05-23T00:13:14;16.70;77.90
33271;DHT22;53180;51.344;6.152;2023-05-23T00:15:43;16.60;77.90
33271;DHT22;53180;51.344;6.152;2023-05-23T00:18:12;16.50;78.00
33271;DHT22;53180;51.344;6.152;2023-05-23T00:20:43;16.50;78.30
33271;DHT22;53180;51.344;6.152;2023-05-23T00:23:12;16.50;78.10
33271;DHT22;53180;51.344;6.152;2023-05-23T00:25:45;16.50;77.90
33271;DHT22;53180;51.344;6.152;2023-05-23T00:28:18;16.40;77.70
33271;DHT22;53180;51.344;6.152;2023-05-23T00:30:47;16.50;77.80
33271;DHT22;53180;51.344;6.152;2023-05-23T00:33:16;16.50;78.20
33271;DHT22;53180;51.344;6.152;2023-05-23T00:35:49;16.50;77.80
33271;DHT22;53180;51.344;6.152;2023-05-23T00:38:18;16.50;77.60
33271;DHT22;53180;51.344;6.152;2023-05-23T00:40:46;16.50;77.60
33271;DHT22;53180;51.344;6.152;2023-05-23T00:43:15;16.60;77.60
33271;DHT22;53180;51.344;6.152;2023-05-23T00:45:44;16.60;77.50
33271;DHT22;53180;51.344;6.152;2023-05-23T00:48:12;16.60;77.70
33271;DHT22;53180;51.344;6.152;2023-05-23T00:50:41;16.50;77.50
33271;DHT22;53180;51.344;6.152;2023-05-23T00:53:11;16.60;77.40
33271;DHT22;53180;51.344;6.152;2023-05-23T00:55:40;16.60;77.50
33271;DHT22;53180;51.344;6.152;2023-05-23T00:58:09;16.60;77.30
33271;DHT22;53180;51.344;6.152;2023-05-23T01:00:39;16.50;77.00
33271;DHT22;53180;51.344;6.152;2023-05-23T01:03:07;16.50;76.90
33271;DHT22;53180;51.344;6.152;2023-05-23T01:05:42;16.50;76.90
33271;DHT22;53180;51.344;6.152;2023-05-23T01:08:12;16.50;77.20
33271;DHT22;53180;51.344;6.152;2023-05-23T01:10:41;16.50;76.90
33271;DHT22;53180;51.344;6.152;2023-05-23T01:13:19;16.50;77.60
33271;DHT22;53180;51.344;6.152;2023-05-23T01:15:55;16.50;77.40
33271;DHT22;53180;51.344;6.152;2023-05-23T01:18:35;16.40;77.30
33271;DHT22;53180;51.344;6.152;2023-05-23T01:21:11;16.40;77.70
33271;DHT22;53180;51.344;6.152;2023-05-23T01:24:02;16.40;76.50
33271;DHT22;53180;51.344;6.152;2023-05-23T01:26:59;16.40;76.70
33271;DHT22;53180;51.344;6.152;2023-05-23T01:29:34;16.50;75.70
33271;DHT22;53180;51.344;6.152;2023-05-23T01:32:08;16.40;75.70
33271;DHT22;53180;51.344;6.152;2023-05-23T01:34:39;16.40;75.70
33271;DHT22;53180;51.344;6.152;2023-05-23T01:37:09;16.40;75.90
33271;DHT22;53180;51.344;6.152;2023-05-23T01:39:40;16.40;75.60
33271;DHT22;53180;51.344;6.152;2023-05-23T01:42:09;16.40;76.10
33271;DHT22;53180;51.344;6.152;2023-05-23T01:44:40;16.40;75.90
33271;DHT22;53180;51.344;6.152;2023-05-23T01:47:09;16.30;76.40
33271;DHT22;53180;51.344;6.152;2023-05-23T01:49:37;16.40;76.10
33271;DHT22;53180;51.344;6.152;2023-05-23T01:52:07;16.40;76.20
33271;DHT22;53180;51.344;6.152;2023-05-23T01:54:36;16.40;76.50
33271;DHT22;53180;51.344;6.152;2023-05-23T01:57:09;16.40;76.90
33271;DHT22;53180;51.344;6.152;2023-05-23T01:59:39;16.30;76.70
33271;DHT22;53180;51.344;6.152;2023-05-23T02:02:07;16.30;76.70
33271;DHT22;53180;51.344;6.152;2023-05-23T02:04:36;16.30;76.70
33271;DHT22;53180;51.344;6.152;2023-05-23T02:07:04;16.40;77.00
33271;DHT22;53180;51.344;6.152;2023-05-23T02:09:33;16.30;77.00
33271;DHT22;53180;51.344;6.152;2023-05-23T02:12:01;16.30;76.90
33271;DHT22;53180;51.344;6.152;2023-05-23T02:14:29;16.30;77.20
33271;DHT22;53180;51.344;6.152;2023-05-23T02:16:59;16.30;77.30
33271;DHT22;53180;51.344;6.152;2023-05-23T02:19:27;16.30;77.60
33271;DHT22;53180;51.344;6.152;2023-05-23T02:21:56;16.40;77.40
33271;DHT22;53180;51.344;6.152;2023-05-23T02:24:24;16.30;77.40
33271;DHT22;53180;51.344;6.152;2023-05-23T02:26:52;16.30;77.40
33271;DHT22;53180;51.344;6.152;2023-05-23T02:29:21;16.30;77.40
33271;DHT22;53180;51.344;6.152;2023-05-23T02:31:49;16.30;77.60
33271;DHT22;53180;51.344;6.152;2023-05-23T02:34:19;16.20;77.30
33271;DHT22;53180;51.344;6.152;2023-05-23T02:36:47;16.20;77.60
33271;DHT22;53180;51.344;6.152;2023-05-23T02:39:17;16.20;77.70
33271;DHT22;53180;51.344;6.152;2023-05-23T02:41:45;16.20;78.00
33271;DHT22;53180;51.344;6.152;2023-05-23T02:44:13;16.20;77.60
33271;DHT22;53180;51.344;6.152;2023-05-23T02:46:42;16.20;77.90
33271;DHT22;53180;51.344;6.152;2023-05-23T02:49:10;16.20;77.40
33271;DHT22;53180;51.344;6.152;2023-05-23T02:51:40;16.20;77.70
33271;DHT22;53180;51.344;6.152;2023-05-23T02:54:08;16.10;77.70
33271;DHT22;53180;51.344;6.152;2023-05-23T02:56:37;16.00;77.70
33271;DHT22;53180;51.344;6.152;2023-05-23T02:59:05;16.10;77.90
33271;DHT22;53180;51.344;6.152;2023-05-23T03:01:34;16.00;77.40
33271;DHT22;53180;51.344;6.152;2023-05-23T03:04:02;16.00;77.50
33271;DHT22;53180;51.344;6.152;2023-05-23T03:06:30;16.00;78.10
33271;DHT22;53180;51.344;6.152;2023-05-23T03:09:04;16.00;78.00
33271;DHT22;53180;51.344;6.152;2023-05-23T03:11:33;16.00;78.20
33271;DHT22;53180;51.344;6.152;2023-05-23T03:14:01;15.90;78.50
33271;DHT22;53180;51.344;6.152;2023-05-23T03:16:30;16.00;78.00
33271;DHT22;53180;51.344;6.152;2023-05-23T03:18:58;15.90;77.90
33271;DHT22;53180;51.344;6.152;2023-05-23T03:21:27;15.90;77.90
33271;DHT22;53180;51.344;6.152;2023-05-23T03:23:55;15.90;77.80
33271;DHT22;53180;51.344;6.152;2023-05-23T03:26:25;15.90;78.30
33271;DHT22;53180;51.344;6.152;2023-05-23T03:28:53;15.90;78.20
33271;DHT22;53180;51.344;6.152;2023-05-23T03:31:21;15.80;78.70
33271;DHT22;53180;51.344;6.152;2023-05-23T03:33:50;15.80;78.50
33271;DHT22;53180;51.344;6.152;2023-05-23T03:36:19;15.80;78.50
33271;DHT22;53180;51.344;6.152;2023-05-23T03:38:52;15.80;78.80
33271;DHT22;53180;51.344;6.152;2023-05-23T03:41:20;15.80;78.60
33271;DHT22;53180;51.344;6.152;2023-05-23T03:43:50;15.80;78.80
33271;DHT22;53180;51.344;6.152;2023-05-23T03:46:18;15.70;79.30
33271;DHT22;53180;51.344;6.152;2023-05-23T03:48:47;15.70;79.60
33271;DHT22;53180;51.344;6.152;2023-05-23T03:51:15;15.70;78.90
33271;DHT22;53180;51.344;6.152;2023-05-23T03:53:43;15.70;79.00
33271;DHT22;53180;51.344;6.152;2023-05-23T03:56:11;15.70;79.30
33271;DHT22;53180;51.344;6.152;2023-05-23T03:58:40;15.70;79.40
33271;DHT22;53180;51.344;6.152;2023-05-23T04:01:09;15.70;79.10
33271;DHT22;53180;51.344;6.152;2023-05-23T04:03:38;15.70;79.00
33271;DHT22;53180;51.344;6.152;2023-05-23T04:06:06;15.70;79.00
33271;DHT22;53180;51.344;6.152;2023-05-23T04:08:37;15.60;79.00
33271;DHT22;53180;51.344;6.152;2023-05-23T04:11:07;15.60;79.30
33271;DHT22;53180;51.344;6.152;2023-05-23T04:13:36;15.70;79.10
33271;DHT22;53180;51.344;6.152;2023-05-23T04:16:05;15.70;78.90
33271;DHT22;53180;51.344;6.152;2023-05-23T04:18:35;15.60;79.00
33271;DHT22;53180;51.344;6.152;2023-05-23T04:21:04;15.70;79.00
33271;DHT22;53180;51.344;6.152;2023-05-23T04:23:33;15.60;78.90
33271;DHT22;53180;51.344;6.152;2023-05-23T04:26:02;15.60;79.00
33271;DHT22;53180;51.344;6.152;2023-05-23T04:28:32;15.70;78.90
33271;DHT22;53180;51.344;6.152;2023-05-23T04:31:01;15.60;79.20
33271;DHT22;53180;51.344;6.152;2023-05-23T04:33:30;15.60;79.30
33271;DHT22;53180;51.344;6.152;2023-05-23T04:36:02;15.60;79.30
33271;DHT22;53180;51.344;6.152;2023-05-23T04:38:31;15.70;79.60
33271;DHT22;53180;51.344;6.152;2023-05-23T04:40:59;15.70;79.30
33271;DHT22;53180;51.344;6.152;2023-05-23T04:43:28;15.60;79.30
33271;DHT22;53180;51.344;6.152;2023-05-23T04:45:59;15.60;79.70
33271;DHT22;53180;51.344;6.152;2023-05-23T04:48:27;15.60;79.70
33271;DHT22;53180;51.344;6.152;2023-05-23T04:50:57;15.60;79.70
33271;DHT22;53180;51.344;6.152;2023-05-23T04:53:29;15.60;79.90
33271;DHT22;53180;51.344;6.152;2023-05-23T04:55:57;15.60;80.20
33271;DHT22;53180;51.344;6.152;2023-05-23T04:58:26;15.50;80.10
33271;DHT22;53180;51.344;6.152;2023-05-23T05:00:54;15.50;80.40
33271;DHT22;53180;51.344;6.152;2023-05-23T05:03:22;15.50;80.20
33271;DHT22;53180;51.344;6.152;2023-05-23T05:05:52;15.50;80.30
33271;DHT22;53180;51.344;6.152;2023-05-23T05:08:21;15.50;80.30
33271;DHT22;53180;51.344;6.152;2023-05-23T05:10:50;15.50;80.80
33271;DHT22;53180;51.344;6.152;2023-05-23T05:13:19;15.50;80.20
33271;DHT22;53180;51.344;6.152;2023-05-23T05:15:47;15.50;80.50
33271;DHT22;53180;51.344;6.152;2023-05-23T05:18:15;15.50;80.50
33271;DHT22;53180;51.344;6.152;2023-05-23T05:20:44;15.50;80.50
33271;DHT22;53180;51.344;6.152;2023-05-23T05:23:13;15.50;80.40
33271;DHT22;53180;51.344;6.152;2023-05-23T05:25:41;15.50;80.30
33271;DHT22;53180;51.344;6.152;2023-05-23T05:28:11;15.50;80.10
33271;DHT22;53180;51.344;6.152;2023-05-23T05:30:39;15.50;79.70
33271;DHT22;53180;51.344;6.152;2023-05-23T05:33:08;15.50;80.20
33271;DHT22;53180;51.344;6.152;2023-05-23T05:35:36;15.60;80.00
33271;DHT22;53180;51.344;6.152;2023-05-23T05:38:05;15.50;79.90
33271;DHT22;53180;51.344;6.152;2023-05-23T05:40:36;15.60;80.10
33271;DHT22;53180;51.344;6.152;2023-05-23T05:43:05;15.60;80.30
33271;DHT22;53180;51.344;6.152;2023-05-23T05:45:35;15.60;80.10
33271;DHT22;53180;51.344;6.152;2023-05-23T05:48:03;15.60;80.10
33271;DHT22;53180;51.344;6.152;2023-05-23T05:50:32;15.60;80.20
33271;DHT22;53180;51.344;6.152;2023-05-23T05:53:00;15.70;80.20
33271;DHT22;53180;51.344;6.152;2023-05-23T05:55:29;15.70;80.00
33271;DHT22;53180;51.344;6.152;2023-05-23T05:57:57;15.50;80.20
33271;DHT22;53180;51.344;6.152;2023-05-23T06:00:25;15.50;79.90
33271;DHT22;53180;51.344;6.152;2023-05-23T06:02:55;15.50;80.50
33271;DHT22;53180;51.344;6.152;2023-05-23T06:05:24;15.60;80.40
33271;DHT22;53180;51.344;6.152;2023-05-23T06:07:53;15.60;80.30
33271;DHT22;53180;51.344;6.152;2023-05-23T06:10:21;15.60;80.10
33271;DHT22;53180;51.344;6.152;2023-05-23T06:12:50;15.60;80.20
33271;DHT22;53180;51.344;6.152;2023-05-23T06:15:18;15.60;80.10
33271;DHT22;53180;51.344;6.152;2023-05-23T06:17:47;15.60;80.10
33271;DHT22;53180;51.344;6.152;2023-05-23T06:20:17;15.50;80.10
33271;DHT22;53180;51.344;6.152;2023-05-23T06:22:45;15.50;80.10
33271;DHT22;53180;51.344;6.152;2023-05-23T06:25:14;15.50;80.40
33271;DHT22;53180;51.344;6.152;2023-05-23T06:27:42;15.50;80.20
33271;DHT22;53180;51.344;6.152;2023-05-23T06:30:13;15.40;80.10
33271;DHT22;53180;51.344;6.152;2023-05-23T06:32:41;15.40;80.20
33271;DHT22;53180;51.344;6.152;2023-05-23T06:35:10;15.40;79.90
33271;DHT22;53180;51.344;6.152;2023-05-23T06:37:40;15.40;79.80
33271;DHT22;53180;51.344;6.152;2023-05-23T06:40:11;15.30;80.00
33271;DHT22;53180;51.344;6.152;2023-05-23T06:42:40;15.40;79.70
33271;DHT22;53180;51.344;6.152;2023-05-23T06:45:09;15.40;80.30
33271;DHT22;53180;51.344;6.152;2023-05-23T06:47:42;15.40;80.10
33271;DHT22;53180;51.344;6.152;2023-05-23T06:50:11;15.40;79.60
33271;DHT22;53180;51.344;6.152;2023-05-23T06:52:41;15.40;79.70
33271;DHT22;53180;51.344;6.152;2023-05-23T06:55:09;15.40;79.50
33271;DHT22;53180;51.344;6.152;2023-05-23T06:57:40;15.30;79.50
33271;DHT22;53180;51.344;6.152;2023-05-23T07:00:09;15.30;80.10
33271;DHT22;53180;51.344;6.152;2023-05-23T07:02:39;15.30;79.70
33271;DHT22;53180;51.344;6.152;2023-05-23T07:05:08;15.30;80.10
33271;DHT22;53180;51.344;6.152;2023-05-23T07:07:36;15.30;80.00
33271;DHT22;53180;51.344;6.152;2023-05-23T07:10:07;15.30;80.00
33271;DHT22;53180;51.344;6.152;2023-05-23T07:12:36;15.20;80.00
33271;DHT22;53180;51.344;6.152;2023-05-23T07:15:06;15.20;80.60
33271;DHT22;53180;51.344;6.152;2023-05-23T07:17:35;15.20;80.10
33271;DHT22;53180;51.344;6.152;2023-05-23T07:20:04;15.20;80.10
33271;DHT22;53180;51.344;6.152;2023-05-23T07:22:34;15.20;80.00
33271;DHT22;53180;51.344;6.152;2023-05-23T07:25:02;15.20;80.00
33271;DHT22;53180;51.344;6.152;2023-05-23T07:27:33;15.20;80.30
33271;DHT22;53180;51.344;6.152;2023-05-23T07:30:02;15.10;80.80
33271;DHT22;53180;51.344;6.152;2023-05-23T07:32:31;15.00;80.60
33271;DHT22;53180;51.344;6.152;2023-05-23T07:34:59;15.10;80.70
33271;DHT22;53180;51.344;6.152;2023-05-23T07:37:28;15.00;80.60
33271;DHT22;53180;51.344;6.152;2023-05-23T07:39:56;15.00;80.50
33271;DHT22;53180;51.344;6.152;2023-05-23T07:42:24;15.00;80.30
33271;DHT22;53180;51.344;6.152;2023-05-23T07:44:54;15.00;79.80
33271;DHT22;53180;51.344;6.152;2023-05-23T07:47:22;15.00;80.20
33271;DHT22;53180;51.344;6.152;2023-05-23T07:49:51;15.00;79.80
33271;DHT22;53180;51.344;6.152;2023-05-23T07:52:19;15.00;79.30
33271;DHT22;53180;51.344;6.152;2023-05-23T07:54:47;14.90;79.30
33271;DHT22;53180;51.344;6.152;2023-05-23T07:57:16;14.90;79.40
33271;DHT22;53180;51.344;6.152;2023-05-23T07:59:44;15.00;79.20
33271;DHT22;53180;51.344;6.152;2023-05-23T08:02:14;15.10;78.90
33271;DHT22;53180;51.344;6.152;2023-05-23T08:04:42;15.00;78.10
33271;DHT22;53180;51.344;6.152;2023-05-23T08:07:12;15.00;78.20
33271;DHT22;53180;51.344;6.152;2023-05-23T08:09:41;15.00;78.10
33271;DHT22;53180;51.344;6.152;2023-05-23T08:12:09;15.00;77.90
33271;DHT22;53180;51.344;6.152;2023-05-23T08:14:38;15.00;78.40
33271;DHT22;53180;51.344;6.152;2023-05-23T08:17:19;15.00;78.30
33271;DHT22;53180;51.344;6.152;2023-05-23T08:19:47;15.00;76.90
33271;DHT22;53180;51.344;6.152;2023-05-23T08:22:16;14.90;76.60
33271;DHT22;53180;51.344;6.152;2023-05-23T08:24:44;14.90;76.70
33271;DHT22;53180;51.344;6.152;2023-05-23T08:27:12;14.90;77.10
33271;DHT22;53180;51.344;6.152;2023-05-23T08:29:41;14.80;76.40
33271;DHT22;53180;51.344;6.152;2023-05-23T08:32:10;14.80;76.10
33271;DHT22;53180;51.344;6.152;2023-05-23T08:34:40;14.80;76.20
33271;DHT22;53180;51.344;6.152;2023-05-23T08:37:08;14.90;76.60
33271;DHT22;53180;51.344;6.152;2023-05-23T08:39:37;14.90;76.00
33271;DHT22;53180;51.344;6.152;2023-05-23T08:42:05;14.90;75.10
33271;DHT22;53180;51.344;6.152;2023-05-23T08:44:34;14.90;74.90
33271;DHT22;53180;51.344;6.152;2023-05-23T08:47:03;14.90;75.50
33271;DHT22;53180;51.344;6.152;2023-05-23T08:49:32;14.90;75.50
33271;DHT22;53180;51.344;6.152;2023-05-23T08:52:03;14.90;75.50
33271;DHT22;53180;51.344;6.152;2023-05-23T08:54:32;14.90;74.40
33271;DHT22;53180;51.344;6.152;2023-05-23T08:57:01;15.00;74.20
33271;DHT22;53180;51.344;6.152;2023-05-23T08:59:32;14.90;73.30
33271;DHT22;53180;51.344;6.152;2023-05-23T09:02:02;15.00;73.50
33271;DHT22;53180;51.344;6.152;2023-05-23T09:04:35;15.00;73.00
33271;DHT22;53180;51.344;6.152;2023-05-23T09:07:05;15.10;73.50
33271;DHT22;53180;51.344;6.152;2023-05-23T09:09:34;15.20;73.70
33271;DHT22;53180;51.344;6.152;2023-05-23T09:12:02;15.30;73.00
33271;DHT22;53180;51.344;6.152;2023-05-23T09:14:31;15.60;72.80
33271;DHT22;53180;51.344;6.152;2023-05-23T09:17:00;15.90;72.50
33271;DHT22;53180;51.344;6.152;2023-05-23T09:19:30;16.10;70.80
33271;DHT22;53180;51.344;6.152;2023-05-23T09:22:01;16.30;70.30
33271;DHT22;53180;51.344;6.152;2023-05-23T09:24:35;16.50;70.90
33271;DHT22;53180;51.344;6.152;2023-05-23T09:27:05;16.70;70.20
33271;DHT22;53180;51.344;6.152;2023-05-23T09:29:36;16.80;69.50
33271;DHT22;53180;51.344;6.152;2023-05-23T09:32:10;16.90;69.50
33271;DHT22;53180;51.344;6.152;2023-05-23T09:34:40;16.80;70.00
33271;DHT22;53180;51.344;6.152;2023-05-23T09:37:11;16.80;68.60
33271;DHT22;53180;51.344;6.152;2023-05-23T09:39:47;16.70;67.70
33271;DHT22;53180;51.344;6.152;2023-05-23T09:42:19;16.50;68.60
33271;DHT22;53180;51.344;6.152;2023-05-23T09:44:49;16.40;68.70
33271;DHT22;53180;51.344;6.152;2023-05-23T09:47:17;16.50;68.30
33271;DHT22;53180;51.344;6.152;2023-05-23T09:49:46;16.50;68.00
33271;DHT22;53180;51.344;6.152;2023-05-23T09:52:14;16.50;66.80
33271;DHT22;53180;51.344;6.152;2023-05-23T09:54:43;16.50;67.40
33271;DHT22;53180;51.344;6.152;2023-05-23T09:57:14;16.60;67.20
33271;DHT22;53180;51.344;6.152;2023-05-23T09:59:50;16.70;67.50
33271;DHT22;53180;51.344;6.152;2023-05-23T10:02:53;16.60;66.80
33271;DHT22;53180;51.344;6.152;2023-05-23T10:05:30;16.60;65.20
33271;DHT22;53180;51.344;6.152;2023-05-23T10:08:04;16.60;66.80
33271;DHT22;53180;51.344;6.152;2023-05-23T10:11:21;16.60;66.20
33271;DHT22;53180;51.344;6.152;2023-05-23T10:14:18;16.50;66.20
33271;DHT22;53180;51.344;6.152;2023-05-23T10:16:54;16.50;67.30
33271;DHT22;53180;51.344;6.152;2023-05-23T10:19:29;16.70;67.40
33271;DHT22;53180;51.344;6.152;2023-05-23T10:22:05;16.70;67.50
33271;DHT22;53180;51.344;6.152;2023-05-23T10:24:36;16.80;67.30
33271;DHT22;53180;51.344;6.152;2023-05-23T10:27:05;16.80;66.30
33271;DHT22;53180;51.344;6.152;2023-05-23T10:29:36;16.80;66.50
33271;DHT22;53180;51.344;6.152;2023-05-23T10:32:06;16.80;67.10
33271;DHT22;53180;51.344;6.152;2023-05-23T10:34:39;17.10;66.10
33271;DHT22;53180;51.344;6.152;2023-05-23T10:37:24;17.30;64.80
33271;DHT22;53180;51.344;6.152;2023-05-23T10:40:00;17.20;65.00
33271;DHT22;53180;51.344;6.152;2023-05-23T10:42:40;17.00;65.60
33271;DHT22;53180;51.344;6.152;2023-05-23T10:45:16;17.00;66.10
33271;DHT22;53180;51.344;6.152;2023-05-23T10:47:46;17.00;65.10
33271;DHT22;53180;51.344;6.152;2023-05-23T10:50:29;17.00;64.00
33271;DHT22;53180;51.344;6.152;2023-05-23T10:53:00;17.00;63.90
33271;DHT22;53180;51.344;6.152;2023-05-23T10:55:31;17.30;63.90
33271;DHT22;53180;51.344;6.152;2023-05-23T10:58:09;17.30;63.40
33271;DHT22;53180;51.344;6.152;2023-05-23T11:00:49;17.20;63.90
33271;DHT22;53180;51.344;6.152;2023-05-23T11:03:30;17.10;64.20
33271;DHT22;53180;51.344;6.152;2023-05-23T11:06:01;17.00;65.00
33271;DHT22;53180;51.344;6.152;2023-05-23T11:08:37;17.10;65.90
33271;DHT22;53180;51.344;6.152;2023-05-23T11:11:14;17.10;65.00
33271;DHT22;53180;51.344;6.152;2023-05-23T11:13:57;17.10;64.40
33271;DHT22;53180;51.344;6.152;2023-05-23T11:16:30;17.10;64.30
33271;DHT22;53180;51.344;6.152;2023-05-23T11:19:22;17.20;65.30
33271;DHT22;53180;51.344;6.152;2023-05-23T11:21:56;17.20;65.40
33271;DHT22;53180;51.344;6.152;2023-05-23T11:24:49;17.30;64.30
33271;DHT22;53180;51.344;6.152;2023-05-23T11:27:26;17.30;64.10
33271;DHT22;53180;51.344;6.152;2023-05-23T11:30:00;17.30;64.20
33271;DHT22;53180;51.344;6.152;2023-05-23T11:32:33;17.30;62.30
33271;DHT22;53180;51.344;6.152;2023-05-23T11:35:03;17.20;62.50
33271;DHT22;53180;51.344;6.152;2023-05-23T11:37:33;17.20;62.00
33271;DHT22;53180;51.344;6.152;2023-05-23T11:40:29;17.30;62.90
33271;DHT22;53180;51.344;6.152;2023-05-23T11:42:59;17.60;63.20
33271;DHT22;53180;51.344;6.152;2023-05-23T11:45:28;17.80;62.40
33271;DHT22;53180;51.344;6.152;2023-05-23T11:48:04;18.00;60.40
33271;DHT22;53180;51.344;6.152;2023-05-23T11:50:34;18.10;61.30
33271;DHT22;53180;51.344;6.152;2023-05-23T11:53:11;18.20;60.40
33271;DHT22;53180;51.344;6.152;2023-05-23T11:55:39;18.20;59.50
33271;DHT22;53180;51.344;6.152;2023-05-23T11:58:09;18.10;59.80
33271;DHT22;53180;51.344;6.152;2023-05-23T12:00:42;17.90;58.60
33271;DHT22;53180;51.344;6.152;2023-05-23T12:03:13;17.90;60.30
33271;DHT22;53180;51.344;6.152;2023-05-23T12:05:42;18.00;60.30
33271;DHT22;53180;51.344;6.152;2023-05-23T12:08:12;18.20;59.20
33271;DHT22;53180;51.344;6.152;2023-05-23T12:10:56;18.30;60.20
33271;DHT22;53180;51.344;6.152;2023-05-23T12:13:27;18.30;59.00
33271;DHT22;53180;51.344;6.152;2023-05-23T12:15:56;18.20;58.90
33271;DHT22;53180;51.344;6.152;2023-05-23T12:18:30;18.30;57.40
33271;DHT22;53180;51.344;6.152;2023-05-23T12:20:59;18.30;56.50
33271;DHT22;53180;51.344;6.152;2023-05-23T12:23:29;18.40;57.30
33271;DHT22;53180;51.344;6.152;2023-05-23T12:26:04;18.50;57.80
33271;DHT22;53180;51.344;6.152;2023-05-23T12:28:35;18.60;58.20
33271;DHT22;53180;51.344;6.152;2023-05-23T12:31:11;18.70;58.40
33271;DHT22;53180;51.344;6.152;2023-05-23T12:33:43;18.70;57.30
33271;DHT22;53180;51.344;6.152;2023-05-23T12:36:12;18.70;56.40
33271;DHT22;53180;51.344;6.152;2023-05-23T12:38:41;18.60;56.10
33271;DHT22;53180;51.344;6.152;2023-05-23T12:41:14;18.70;57.80
33271;DHT22;53180;51.344;6.152;2023-05-23T12:43:49;18.90;58.10
33271;DHT22;53180;51.344;6.152;2023-05-23T12:46:19;18.90;55.90
33271;DHT22;53180;51.344;6.152;2023-05-23T12:48:49;18.80;54.90
33271;DHT22;53180;51.344;6.152;2023-05-23T12:51:19;18.80;55.50
33271;DHT22;53180;51.344;6.152;2023-05-23T12:53:48;18.80;56.00
33271;DHT22;53180;51.344;6.152;2023-05-23T12:56:16;18.80;56.20
33271;DHT22;53180;51.344;6.152;2023-05-23T12:58:44;18.70;56.90
33271;DHT22;53180;51.344;6.152;2023-05-23T13:01:13;18.50;56.00
33271;DHT22;53180;51.344;6.152;2023-05-23T13:03:41;18.50;56.10
33271;DHT22;53180;51.344;6.152;2023-05-23T13:06:11;18.60;56.00
33271;DHT22;53180;51.344;6.152;2023-05-23T13:08:39;18.70;56.00
33271;DHT22;53180;51.344;6.152;2023-05-23T13:11:08;18.60;56.60
33271;DHT22;53180;51.344;6.152;2023-05-23T13:13:37;18.80;55.10
33271;DHT22;53180;51.344;6.152;2023-05-23T13:16:05;18.90;55.90
33271;DHT22;53180;51.344;6.152;2023-05-23T13:18:35;18.90;53.30
33271;DHT22;53180;51.344;6.152;2023-05-23T13:21:03;18.80;54.50
33271;DHT22;53180;51.344;6.152;2023-05-23T13:23:34;18.70;56.80
33271;DHT22;53180;51.344;6.152;2023-05-23T13:26:05;18.60;55.40
33271;DHT22;53180;51.344;6.152;2023-05-23T13:28:33;18.50;56.00
33271;DHT22;53180;51.344;6.152;2023-05-23T13:31:02;18.50;56.40
33271;DHT22;53180;51.344;6.152;2023-05-23T13:33:30;18.40;56.50
33271;DHT22;53180;51.344;6.152;2023-05-23T13:35:59;18.40;59.70
33271;DHT22;53180;51.344;6.152;2023-05-23T13:38:27;18.30;57.30
33271;DHT22;53180;51.344;6.152;2023-05-23T13:40:59;18.70;55.90
33271;DHT22;53180;51.344;6.152;2023-05-23T13:43:27;18.90;53.40
33271;DHT22;53180;51.344;6.152;2023-05-23T13:45:56;19.20;51.10
33271;DHT22;53180;51.344;6.152;2023-05-23T13:48:28;19.10;50.40
33271;DHT22;53180;51.344;6.152;2023-05-23T13:50:57;19.20;52.30
33271;DHT22;53180;51.344;6.152;2023-05-23T13:53:29;17.20;87.30
33271;DHT22;53180;51.344;6.152;2023-05-23T13:55:59;15.90;90.00
33271;DHT22;53180;51.344;6.152;2023-05-23T13:58:28;15.80;90.30
33271;DHT22;53180;51.344;6.152;2023-05-23T14:00:58;15.80;89.70
33271;DHT22;53180;51.344;6.152;2023-05-23T14:03:27;15.80;90.10
33271;DHT22;53180;51.344;6.152;2023-05-23T14:05:55;16.00;90.40
33271;DHT22;53180;51.344;6.152;2023-05-23T14:08:23;16.30;88.90
33271;DHT22;53180;51.344;6.152;2023-05-23T14:10:51;16.70;88.60
33271;DHT22;53180;51.344;6.152;2023-05-23T14:13:21;17.10;86.80
33271;DHT22;53180;51.344;6.152;2023-05-23T14:15:50;17.30;85.70
33271;DHT22;53180;51.344;6.152;2023-05-23T14:18:19;17.30;85.00
33271;DHT22;53180;51.344;6.152;2023-05-23T14:20:48;15.60;89.60
33271;DHT22;53180;51.344;6.152;2023-05-23T14:23:16;15.20;90.30
33271;DHT22;53180;51.344;6.152;2023-05-23T14:25:45;15.20;90.60
33271;DHT22;53180;51.344;6.152;2023-05-23T14:28:13;15.50;89.50
33271;DHT22;53180;51.344;6.152;2023-05-23T14:30:44;15.90;89.20
33271;DHT22;53180;51.344;6.152;2023-05-23T14:33:12;16.30;87.70
33271;DHT22;53180;51.344;6.152;2023-05-23T14:35:41;16.70;85.90
33271;DHT22;53180;51.344;6.152;2023-05-23T14:38:09;16.80;79.10
33271;DHT22;53180;51.344;6.152;2023-05-23T14:40:38;17.00;77.70
33271;DHT22;53180;51.344;6.152;2023-05-23T14:43:06;17.10;75.30
33271;DHT22;53180;51.344;6.152;2023-05-23T14:45:35;17.10;71.60
33271;DHT22;53180;51.344;6.152;2023-05-23T14:48:05;17.50;66.70
33271;DHT22;53180;51.344;6.152;2023-05-23T14:50:34;17.90;62.90
33271;DHT22;53180;51.344;6.152;2023-05-23T14:53:03;18.00;59.90
33271;DHT22;53180;51.344;6.152;2023-05-23T14:55:31;18.00;58.60
33271;DHT22;53180;51.344;6.152;2023-05-23T14:58:00;18.10;57.90
33271;DHT22;53180;51.344;6.152;2023-05-23T15:00:29;18.00;56.60
33271;DHT22;53180;51.344;6.152;2023-05-23T15:02:58;18.00;57.90
33271;DHT22;53180;51.344;6.152;2023-05-23T15:05:28;18.00;56.00
33271;DHT22;53180;51.344;6.152;2023-05-23T15:07:56;17.90;56.70
33271;DHT22;53180;51.344;6.152;2023-05-23T15:10:25;17.90;55.80
33271;DHT22;53180;51.344;6.152;2023-05-23T15:12:53;17.90;55.60
33271;DHT22;53180;51.344;6.152;2023-05-23T15:15:22;17.90;55.10
33271;DHT22;53180;51.344;6.152;2023-05-23T15:17:51;18.10;56.40
33271;DHT22;53180;51.344;6.152;2023-05-23T15:20:19;18.00;55.30
33271;DHT22;53180;51.344;6.152;2023-05-23T15:22:49;17.80;56.70
33271;DHT22;53180;51.344;6.152;2023-05-23T15:25:17;17.60;56.00
33271;DHT22;53180;51.344;6.152;2023-05-23T15:28:04;17.50;55.60
33271;DHT22;53180;51.344;6.152;2023-05-23T15:30:32;17.40;57.20
33271;DHT22;53180;51.344;6.152;2023-05-23T15:33:02;17.50;55.50
33271;DHT22;53180;51.344;6.152;2023-05-23T15:35:30;17.80;53.80
33271;DHT22;53180;51.344;6.152;2023-05-23T15:38:00;18.00;54.60
33271;DHT22;53180;51.344;6.152;2023-05-23T15:40:29;18.00;54.90
33271;DHT22;53180;51.344;6.152;2023-05-23T15:42:57;18.10;54.60
33271;DHT22;53180;51.344;6.152;2023-05-23T15:45:26;17.90;54.60
33271;DHT22;53180;51.344;6.152;2023-05-23T15:47:54;17.80;53.50
33271;DHT22;53180;51.344;6.152;2023-05-23T15:50:23;17.70;53.80